createdAt,value
2018-07-20T00:00:01.036Z,22.55
2018-07-20T00:01:16.196Z,22.58
2018-07-20T00:02:30.901Z,22.6
2018-07-20T00:03:45.351Z,22.62
2018-07-20T00:05:00.150Z,22.63
2018-07-20T00:06:14.847Z,22.63
2018-07-20T00:07:29.527Z,22.62
2018-07-20T00:08:44.577Z,22.62
2018-07-20T00:09:59.736Z,22.62
2018-07-20T00:11:14.246Z,22.63
2018-07-20T00:12:29.217Z,22.65
2018-07-20T00:13:44.229Z,22.66
2018-07-20T00:14:58.931Z,22.69
2018-07-20T00:16:13.406Z,22.7
2018-07-20T00:17:27.913Z,22.7
2018-07-20T00:18:42.630Z,22.7
2018-07-20T00:19:57.231Z,22.72
2018-07-20T00:21:11.685Z,22.73
2018-07-20T00:22:26.384Z,22.71
2018-07-20T00:23:40.821Z,22.68
2018-07-20T00:24:55.638Z,22.63
2018-07-20T00:26:10.086Z,22.61
2018-07-20T00:27:24.258Z,22.6
2018-07-20T00:28:38.634Z,22.61
2018-07-20T00:29:52.833Z,22.61
2018-07-20T00:31:07.525Z,22.62
2018-07-20T00:32:22.232Z,22.63
2018-07-20T00:33:36.466Z,22.63
2018-07-20T00:34:51.144Z,22.65
2018-07-20T00:36:05.960Z,22.64
2018-07-20T00:37:20.645Z,22.63
2018-07-20T00:38:34.799Z,22.57
2018-07-20T00:39:49.538Z,22.53
2018-07-20T00:41:03.365Z,22.46
2018-07-20T00:42:18.226Z,22.42
2018-07-20T00:43:32.691Z,22.34
2018-07-20T00:44:47.166Z,22.28
2018-07-20T00:46:02.113Z,22.23
2018-07-20T00:47:16.890Z,22.22
2018-07-20T00:48:31.071Z,22.23
2018-07-20T00:49:45.280Z,22.25
2018-07-20T00:51:00.023Z,22.27
2018-07-20T00:52:14.705Z,22.28
2018-07-20T00:53:28.880Z,22.3
2018-07-20T00:54:43.178Z,22.32
2018-07-20T00:55:57.675Z,22.3
2018-07-20T00:57:12.094Z,22.3
2018-07-20T00:58:26.326Z,22.31
2018-07-20T00:59:40.760Z,22.3
2018-07-20T01:00:55.730Z,22.32
2018-07-20T01:02:10.155Z,22.32
2018-07-20T01:03:25.260Z,22.32
2018-07-20T01:04:39.711Z,22.31
2018-07-20T01:05:54.648Z,22.32
2018-07-20T01:07:09.137Z,22.32
2018-07-20T01:08:23.590Z,22.32
2018-07-20T01:09:38.346Z,22.33
2018-07-20T01:10:53.364Z,22.33
2018-07-20T01:12:08.527Z,22.32
2018-07-20T01:13:22.458Z,22.31
2018-07-20T01:14:36.371Z,22.28
2018-07-20T01:15:51.072Z,22.22
2018-07-20T01:17:05.507Z,22.12
2018-07-20T01:18:19.477Z,22.01
2018-07-20T01:19:33.897Z,21.86
2018-07-20T01:20:48.592Z,21.74
2018-07-20T01:22:03.862Z,21.61
2018-07-20T01:23:18.041Z,21.49
2018-07-20T01:24:33.018Z,21.37
2018-07-20T01:25:47.448Z,21.28
2018-07-20T01:27:01.692Z,21.18
2018-07-20T01:28:15.881Z,21.1
2018-07-20T01:29:30.322Z,21.03
2018-07-20T01:30:44.824Z,20.98
2018-07-20T01:32:00.041Z,20.95
2018-07-20T01:33:14.336Z,20.91
2018-07-20T01:34:29.037Z,20.89
2018-07-20T01:35:43.508Z,20.88
2018-07-20T01:36:58.216Z,20.9
2018-07-20T01:38:12.961Z,20.93
2018-07-20T01:39:27.722Z,20.96
2018-07-20T01:40:42.071Z,21
2018-07-20T01:41:56.249Z,21.05
2018-07-20T01:43:11.405Z,21.08
2018-07-20T01:44:25.867Z,21.12
2018-07-20T01:45:40.539Z,21.16
2018-07-20T01:46:54.978Z,21.18
2018-07-20T01:48:09.297Z,21.21
2018-07-20T01:49:22.901Z,21.23
2018-07-20T01:50:36.574Z,21.24
2018-07-20T01:51:51.492Z,21.26
2018-07-20T01:53:05.971Z,21.27
2018-07-20T01:54:20.371Z,21.28
2018-07-20T01:55:34.926Z,21.3
2018-07-20T01:56:49.259Z,21.31
2018-07-20T01:58:03.773Z,21.31
2018-07-20T01:59:18.741Z,21.32
2018-07-20T02:00:33.398Z,21.33
2018-07-20T02:01:47.572Z,21.34
2018-07-20T02:03:02.301Z,21.34
2018-07-20T02:04:16.842Z,21.35
2018-07-20T02:05:31.817Z,21.34
2018-07-20T02:06:46.495Z,21.36
2018-07-20T02:08:00.685Z,21.37
2018-07-20T02:09:14.418Z,21.4
2018-07-20T02:10:29.347Z,21.41
2018-07-20T02:11:43.612Z,21.42
2018-07-20T02:12:58.092Z,21.44
2018-07-20T02:14:12.615Z,21.47
2018-07-20T02:15:27.355Z,21.48
2018-07-20T02:16:41.279Z,21.5
2018-07-20T02:17:55.947Z,21.5
2018-07-20T02:19:10.559Z,21.5
2018-07-20T02:20:24.520Z,21.47
2018-07-20T02:21:39.212Z,21.46
2018-07-20T02:22:53.677Z,21.46
2018-07-20T02:24:08.682Z,21.46
2018-07-20T02:25:22.613Z,21.47
2018-07-20T02:26:37.054Z,21.48
2018-07-20T02:27:50.964Z,21.48
2018-07-20T02:29:06.189Z,21.46
2018-07-20T02:30:19.846Z,21.45
2018-07-20T02:31:34.309Z,21.44
2018-07-20T02:32:48.993Z,21.43
2018-07-20T02:34:03.710Z,21.43
2018-07-20T02:35:18.151Z,21.41
2018-07-20T02:36:32.344Z,21.41
2018-07-20T02:37:47.067Z,21.37
2018-07-20T02:39:01.835Z,21.35
2018-07-20T02:40:16.918Z,21.35
2018-07-20T02:41:31.632Z,21.32
2018-07-20T02:42:45.575Z,21.3
2018-07-20T02:43:59.487Z,21.28
2018-07-20T02:45:14.192Z,21.25
2018-07-20T02:46:28.661Z,21.26
2018-07-20T02:47:42.829Z,21.28
2018-07-20T02:48:57.499Z,21.28
2018-07-20T02:50:12.476Z,21.28
2018-07-20T02:51:26.683Z,21.28
2018-07-20T02:52:41.651Z,21.25
2018-07-20T02:53:56.617Z,21.22
2018-07-20T02:55:11.326Z,21.21
2018-07-20T02:56:25.775Z,21.18
2018-07-20T02:57:40.225Z,21.17
2018-07-20T02:58:54.907Z,21.15
2018-07-20T03:00:08.950Z,21.14
2018-07-20T03:01:22.870Z,21.14
2018-07-20T03:02:37.068Z,21.14
2018-07-20T03:03:51.533Z,21.14
2018-07-20T03:05:06.039Z,21.14
2018-07-20T03:06:21.688Z,21.14
2018-07-20T03:07:35.875Z,21.14
2018-07-20T03:08:50.362Z,21.15
2018-07-20T03:10:04.711Z,21.17
2018-07-20T03:11:19.407Z,21.18
2018-07-20T03:12:34.132Z,21.18
2018-07-20T03:13:47.826Z,21.15
2018-07-20T03:15:01.516Z,21.14
2018-07-20T03:16:15.869Z,21.14
2018-07-20T03:17:30.365Z,21.16
2018-07-20T03:18:45.063Z,21.17
2018-07-20T03:19:59.735Z,21.18
2018-07-20T03:21:14.280Z,21.18
2018-07-20T03:22:28.487Z,21.18
2018-07-20T03:23:43.578Z,21.18
2018-07-20T03:24:57.759Z,21.19
2018-07-20T03:26:12.194Z,21.17
2018-07-20T03:27:27.137Z,21.16
2018-07-20T03:28:41.393Z,21.16
2018-07-20T03:29:56.059Z,21.15
2018-07-20T03:31:10.991Z,21.13
2018-07-20T03:32:30.798Z,21.12
2018-07-20T03:33:45.764Z,21.12
2018-07-20T03:35:00.198Z,21.1
2018-07-20T03:36:14.557Z,21.08
2018-07-20T03:37:29.057Z,21.08
2018-07-20T03:38:43.495Z,21.06
2018-07-20T03:39:58.443Z,21.05
2018-07-20T03:41:13.084Z,21.04
2018-07-20T03:42:27.542Z,21.03
2018-07-20T03:43:42.025Z,21.02
2018-07-20T03:44:56.653Z,21.02
2018-07-20T03:46:11.040Z,20.98
2018-07-20T03:47:25.736Z,20.98
2018-07-20T03:48:40.182Z,20.95
2018-07-20T03:49:54.611Z,20.94
2018-07-20T03:51:09.311Z,20.92
2018-07-20T03:52:24.032Z,20.92
2018-07-20T03:53:38.229Z,20.93
2018-07-20T03:54:52.640Z,20.93
2018-07-20T03:56:07.337Z,20.98
2018-07-20T03:57:22.117Z,21.02
2018-07-20T03:58:36.603Z,21.07
2018-07-20T03:59:51.197Z,21.11
2018-07-20T04:01:05.625Z,21.18
2018-07-20T04:02:20.194Z,21.24
2018-07-20T04:03:35.262Z,21.48
2018-07-20T04:04:49.761Z,21.81
2018-07-20T04:06:04.295Z,22.16
2018-07-20T04:07:18.928Z,22.46
2018-07-20T04:08:33.706Z,22.68
2018-07-20T04:09:48.514Z,22.84
2018-07-20T04:11:03.051Z,22.88
2018-07-20T04:12:18.016Z,22.86
2018-07-20T04:13:32.586Z,22.88
2018-07-20T04:14:47.105Z,22.9
2018-07-20T04:16:01.875Z,22.92
2018-07-20T04:17:16.459Z,22.9
2018-07-20T04:18:30.977Z,22.88
2018-07-20T04:19:45.478Z,22.87
2018-07-20T04:20:59.980Z,22.89
2018-07-20T04:22:14.708Z,22.91
2018-07-20T04:23:29.494Z,22.97
2018-07-20T04:24:44.472Z,22.99
2018-07-20T04:25:58.966Z,23.01
2018-07-20T04:27:13.434Z,23.07
2018-07-20T04:28:27.743Z,23.1
2018-07-20T04:29:41.967Z,23.15
2018-07-20T04:30:56.439Z,23.19
2018-07-20T04:32:11.406Z,23.27
2018-07-20T04:33:25.998Z,23.34
2018-07-20T04:34:40.198Z,23.37
2018-07-20T04:35:54.651Z,23.44
2018-07-20T04:37:09.387Z,23.53
2018-07-20T04:38:23.602Z,23.6
2018-07-20T04:39:37.784Z,23.63
2018-07-20T04:40:52.729Z,23.6
2018-07-20T04:42:07.233Z,23.58
2018-07-20T04:43:22.565Z,23.61
2018-07-20T04:44:37.295Z,23.68
2018-07-20T04:45:51.756Z,23.85
2018-07-20T04:47:06.189Z,23.99
2018-07-20T04:48:21.108Z,24.05
2018-07-20T04:49:36.041Z,24.15
2018-07-20T04:50:50.536Z,24.32
2018-07-20T04:52:04.754Z,24.42
2018-07-20T04:53:19.954Z,24.58
2018-07-20T04:54:34.683Z,24.69
2018-07-20T04:55:49.109Z,24.93
2018-07-20T04:57:03.579Z,25.66
2018-07-20T04:58:18.291Z,26.42
2018-07-20T04:59:33.415Z,26.9
2018-07-20T05:00:48.354Z,27.01
2018-07-20T05:02:02.828Z,26.97
2018-07-20T05:03:17.562Z,26.91
2018-07-20T05:04:32.317Z,27.07
2018-07-20T05:05:46.592Z,27.5
2018-07-20T05:07:01.610Z,27.63
2018-07-20T05:08:16.562Z,27.67
2018-07-20T05:09:31.337Z,28.13
2018-07-20T05:10:45.593Z,28.9
2018-07-20T05:12:00.107Z,29.51
2018-07-20T05:13:14.813Z,29.95
2018-07-20T05:14:29.571Z,30.23
2018-07-20T05:15:44.332Z,30.95
2018-07-20T05:16:58.782Z,31.22
2018-07-20T05:18:13.223Z,30.75
2018-07-20T05:19:27.644Z,30.26
2018-07-20T05:20:42.792Z,29.72
2018-07-20T05:21:57.476Z,29.21
2018-07-20T05:23:11.443Z,28.76
2018-07-20T05:24:26.121Z,28.38
2018-07-20T05:25:40.318Z,28.03
2018-07-20T05:26:54.511Z,27.8
2018-07-20T05:28:08.703Z,27.65
2018-07-20T05:29:22.919Z,27.42
2018-07-20T05:30:37.337Z,27.29
2018-07-20T05:31:51.533Z,27.29
2018-07-20T05:33:06.040Z,27.54
2018-07-20T05:34:20.748Z,28.08
2018-07-20T05:35:35.651Z,28.4
2018-07-20T05:36:50.146Z,28.39
2018-07-20T05:38:04.681Z,28.15
2018-07-20T05:39:19.863Z,28.02
2018-07-20T05:40:34.250Z,27.96
2018-07-20T05:41:48.214Z,27.93
2018-07-20T05:43:02.198Z,27.93
2018-07-20T05:44:16.644Z,27.94
2018-07-20T05:45:31.752Z,27.99
2018-07-20T05:46:46.686Z,28.02
2018-07-20T05:48:01.675Z,28.02
2018-07-20T05:49:16.844Z,28.02
2018-07-20T05:50:31.655Z,28
2018-07-20T05:51:46.117Z,27.99
2018-07-20T05:53:00.833Z,27.99
2018-07-20T05:54:15.315Z,27.97
2018-07-20T05:55:29.999Z,27.93
2018-07-20T05:56:44.457Z,27.92
2018-07-20T05:57:58.665Z,27.92
2018-07-20T05:59:13.383Z,27.89
2018-07-20T06:00:28.291Z,27.88
2018-07-20T06:01:42.976Z,27.9
2018-07-20T06:02:57.696Z,27.95
2018-07-20T06:04:12.205Z,27.97
2018-07-20T06:05:26.408Z,27.98
2018-07-20T06:06:41.360Z,28.02
2018-07-20T06:07:56.412Z,28.06
2018-07-20T06:09:11.143Z,28.08
2018-07-20T06:10:25.346Z,28.13
2018-07-20T06:11:40.289Z,28.22
2018-07-20T06:12:54.252Z,28.28
2018-07-20T06:14:09.092Z,28.31
2018-07-20T06:15:23.472Z,28.32
2018-07-20T06:16:37.843Z,28.36
2018-07-20T06:17:53.039Z,28.4
2018-07-20T06:19:08.411Z,28.41
2018-07-20T06:20:23.492Z,28.38
2018-07-20T06:21:38.117Z,28.35
2018-07-20T06:22:52.974Z,28.35
2018-07-20T06:24:07.791Z,28.4
2018-07-20T06:25:22.291Z,28.43
2018-07-20T06:26:37.227Z,28.44
2018-07-20T06:27:52.280Z,28.42
2018-07-20T06:29:06.753Z,28.41
2018-07-20T06:30:21.246Z,28.38
2018-07-20T06:31:36.026Z,28.35
2018-07-20T06:32:50.533Z,28.33
2018-07-20T06:34:04.520Z,28.31
2018-07-20T06:35:18.996Z,28.29
2018-07-20T06:36:33.498Z,28.28
2018-07-20T06:37:48.428Z,28.23
2018-07-20T06:39:02.661Z,28.17
2018-07-20T06:40:16.932Z,28.11
2018-07-20T06:41:31.152Z,28.05
2018-07-20T06:42:45.386Z,28.02
2018-07-20T06:44:00.173Z,28.01
2018-07-20T06:45:14.647Z,27.99
2018-07-20T06:46:29.685Z,27.97
2018-07-20T06:47:44.430Z,27.96
2018-07-20T06:48:59.171Z,27.92
2018-07-20T06:50:14.011Z,27.93
2018-07-20T06:51:28.809Z,27.94
2018-07-20T06:52:44.374Z,27.92
2018-07-20T06:53:58.912Z,27.9
2018-07-20T06:55:13.911Z,27.89
2018-07-20T06:56:28.700Z,27.89
2018-07-20T06:57:43.899Z,27.89
2018-07-20T06:58:58.433Z,27.89
2018-07-20T07:00:13.410Z,27.89
2018-07-20T07:01:27.922Z,27.92
2018-07-20T07:02:43.047Z,27.95
2018-07-20T07:03:57.766Z,27.96
2018-07-20T07:05:12.748Z,27.97
2018-07-20T07:06:27.499Z,27.93
2018-07-20T07:07:42.287Z,27.91
2018-07-20T07:08:56.999Z,27.91
2018-07-20T07:10:10.951Z,27.88
2018-07-20T07:11:25.416Z,27.85
2018-07-20T07:12:40.593Z,27.85
2018-07-20T07:13:54.810Z,27.84
2018-07-20T07:15:08.823Z,27.85
2018-07-20T07:16:24.563Z,27.85
2018-07-20T07:17:39.320Z,27.89
2018-07-20T07:18:54.301Z,27.91
2018-07-20T07:20:08.855Z,27.92
2018-07-20T07:21:23.077Z,27.94
2018-07-20T07:22:37.687Z,27.95
2018-07-20T07:23:52.171Z,27.95
2018-07-20T07:25:06.654Z,27.91
2018-07-20T07:26:21.386Z,27.86
2018-07-20T07:27:36.491Z,27.85
2018-07-20T07:28:51.344Z,27.85
2018-07-20T07:30:06.076Z,27.85
2018-07-20T07:31:20.051Z,27.84
2018-07-20T07:32:34.585Z,27.78
2018-07-20T07:33:49.647Z,27.75
2018-07-20T07:35:03.835Z,27.72
2018-07-20T07:36:17.822Z,27.72
2018-07-20T07:37:31.516Z,27.71
2018-07-20T07:38:45.634Z,27.7
2018-07-20T07:39:59.871Z,27.7
2018-07-20T07:41:14.631Z,27.71
2018-07-20T07:42:29.112Z,27.7
2018-07-20T07:43:43.401Z,27.71
2018-07-20T07:44:58.173Z,27.72
2018-07-20T07:46:13.130Z,27.75
2018-07-20T07:47:27.881Z,27.77
2018-07-20T07:48:42.741Z,27.79
2018-07-20T07:49:57.246Z,27.81
2018-07-20T07:51:11.751Z,27.84
2018-07-20T07:52:26.237Z,27.86
2018-07-20T07:53:40.944Z,27.86
2018-07-20T07:54:55.652Z,27.89
2018-07-20T07:56:10.431Z,27.92
2018-07-20T07:57:25.643Z,27.96
2018-07-20T07:58:39.881Z,28.05
2018-07-20T07:59:54.651Z,28.12
2018-07-20T08:01:09.406Z,28.17
2018-07-20T08:02:23.599Z,28.2
2018-07-20T08:03:38.489Z,28.2
2018-07-20T08:04:53.190Z,28.19
2018-07-20T08:06:07.699Z,28.21
2018-07-20T08:07:22.683Z,28.21
2018-07-20T08:08:37.229Z,28.2
2018-07-20T08:09:51.758Z,28.21
2018-07-20T08:11:07.520Z,28.22
2018-07-20T08:12:22.578Z,28.21
2018-07-20T08:13:36.784Z,28.24
2018-07-20T08:14:51.274Z,28.28
2018-07-20T08:16:05.972Z,28.27
2018-07-20T08:17:20.430Z,28.28
2018-07-20T08:18:35.425Z,28.29
2018-07-20T08:19:49.988Z,28.29
2018-07-20T08:21:04.699Z,28.32
2018-07-20T08:22:18.934Z,28.33
2018-07-20T08:23:33.666Z,28.36
2018-07-20T08:24:48.209Z,28.38
2018-07-20T08:26:02.690Z,28.39
2018-07-20T08:27:17.420Z,28.42
2018-07-20T08:28:32.152Z,28.46
2018-07-20T08:29:46.413Z,28.5
2018-07-20T08:31:01.259Z,28.54
2018-07-20T08:32:15.653Z,28.59
2018-07-20T08:33:30.132Z,28.65
2018-07-20T08:34:44.584Z,28.69
2018-07-20T08:35:59.141Z,28.75
2018-07-20T08:37:13.890Z,28.82
2018-07-20T08:38:28.350Z,28.86
2018-07-20T08:39:43.092Z,28.88
2018-07-20T08:40:57.545Z,28.89
2018-07-20T08:42:11.851Z,28.93
2018-07-20T08:43:26.853Z,28.94
2018-07-20T08:44:41.538Z,28.95
2018-07-20T08:45:56.163Z,28.97
2018-07-20T08:47:10.359Z,28.99
2018-07-20T08:48:24.281Z,29.04
2018-07-20T08:49:38.233Z,29.11
2018-07-20T08:50:52.697Z,29.17
2018-07-20T08:52:07.672Z,29.22
2018-07-20T08:53:22.122Z,29.26
2018-07-20T08:54:37.387Z,29.31
2018-07-20T08:55:52.211Z,29.39
2018-07-20T08:57:06.671Z,29.5
2018-07-20T08:58:21.365Z,29.61
2018-07-20T08:59:36.370Z,29.71
2018-07-20T09:00:50.786Z,29.79
2018-07-20T09:02:05.577Z,29.88
2018-07-20T09:03:20.468Z,29.99
2018-07-20T09:04:35.602Z,30.09
2018-07-20T09:05:50.569Z,30.16
2018-07-20T09:07:05.050Z,30.26
2018-07-20T09:08:19.064Z,30.34
2018-07-20T09:09:33.537Z,30.4
2018-07-20T09:10:47.747Z,30.46
2018-07-20T09:12:02.529Z,30.49
2018-07-20T09:13:16.997Z,30.54
2018-07-20T09:14:31.966Z,30.58
2018-07-20T09:15:46.480Z,30.61
2018-07-20T09:17:01.327Z,30.67
2018-07-20T09:18:16.040Z,30.73
2018-07-20T09:19:30.945Z,30.79
2018-07-20T09:20:45.281Z,30.87
2018-07-20T09:22:00.575Z,30.93
2018-07-20T09:23:14.798Z,30.98
2018-07-20T09:24:29.466Z,31.03
2018-07-20T09:25:43.913Z,31.1
2018-07-20T09:26:58.526Z,31.14
2018-07-20T09:28:13.060Z,31.19
2018-07-20T09:29:27.400Z,31.24
2018-07-20T09:30:42.139Z,31.27
2018-07-20T09:31:56.031Z,31.3
2018-07-20T09:33:10.763Z,31.3
2018-07-20T09:34:25.235Z,31.33
2018-07-20T09:35:39.699Z,31.37
2018-07-20T09:36:54.509Z,31.41
2018-07-20T09:38:09.197Z,31.46
2018-07-20T09:39:23.915Z,31.47
2018-07-20T09:40:38.670Z,31.5
2018-07-20T09:41:52.898Z,31.52
2018-07-20T09:43:07.830Z,31.57
2018-07-20T09:44:22.459Z,31.59
2018-07-20T09:45:37.582Z,31.61
2018-07-20T09:46:52.053Z,31.61
2018-07-20T09:48:06.937Z,31.64
2018-07-20T09:49:21.977Z,31.66
2018-07-20T09:50:36.428Z,31.72
2018-07-20T09:51:50.889Z,31.79
2018-07-20T09:53:05.295Z,31.83
2018-07-20T09:54:20.447Z,31.84
2018-07-20T09:55:35.455Z,31.84
2018-07-20T09:56:49.399Z,31.85
2018-07-20T09:58:03.503Z,31.83
2018-07-20T09:59:18.250Z,31.81
2018-07-20T10:00:33.132Z,31.78
2018-07-20T10:01:47.575Z,31.78
2018-07-20T10:03:02.063Z,31.75
2018-07-20T10:04:16.276Z,31.75
2018-07-20T10:05:30.985Z,31.76
2018-07-20T10:06:44.910Z,31.75
2018-07-20T10:07:59.480Z,31.75
2018-07-20T10:09:13.954Z,31.76
2018-07-20T10:10:28.172Z,31.79
2018-07-20T10:11:42.370Z,31.8
2018-07-20T10:12:57.060Z,31.81
2018-07-20T10:14:11.283Z,31.84
2018-07-20T10:15:25.999Z,31.85
2018-07-20T10:16:40.716Z,31.85
2018-07-20T10:17:55.172Z,31.76
2018-07-20T10:19:10.381Z,31.72
2018-07-20T10:20:24.673Z,31.71
2018-07-20T10:21:39.646Z,31.68
2018-07-20T10:22:54.630Z,31.63
2018-07-20T10:24:09.293Z,31.59
2018-07-20T10:25:23.767Z,31.56
2018-07-20T10:26:38.703Z,31.55
2018-07-20T10:27:52.651Z,31.56
2018-07-20T10:29:07.571Z,31.59
2018-07-20T10:30:22.001Z,31.6
2018-07-20T10:31:36.501Z,31.61
2018-07-20T10:32:50.961Z,31.62
2018-07-20T10:34:05.865Z,31.62
2018-07-20T10:35:20.026Z,31.65
2018-07-20T10:36:35.081Z,31.64
2018-07-20T10:37:49.741Z,31.65
2018-07-20T10:39:04.031Z,31.72
2018-07-20T10:40:18.790Z,31.79
2018-07-20T10:41:33.544Z,31.86
2018-07-20T10:42:48.530Z,31.92
2018-07-20T10:44:03.064Z,31.98
2018-07-20T10:45:17.560Z,32.01
2018-07-20T10:46:32.044Z,32.03
2018-07-20T10:47:46.505Z,32.04
2018-07-20T10:49:01.246Z,32.01
2018-07-20T10:50:15.686Z,31.97
2018-07-20T10:51:30.150Z,31.95
2018-07-20T10:52:45.161Z,31.94
2018-07-20T10:53:59.341Z,31.92
2018-07-20T10:55:14.240Z,31.92
2018-07-20T10:56:28.434Z,31.89
2018-07-20T10:57:42.911Z,31.84
2018-07-20T10:58:57.134Z,31.81
2018-07-20T11:00:11.527Z,31.8
2018-07-20T11:01:25.430Z,31.79
2018-07-20T11:02:40.592Z,31.78
2018-07-20T11:03:54.816Z,31.81
2018-07-20T11:05:09.415Z,31.84
2018-07-20T11:06:24.113Z,31.82
2018-07-20T11:07:38.830Z,31.78
2018-07-20T11:08:53.086Z,31.78
2018-07-20T11:10:07.884Z,31.79
2018-07-20T11:11:21.940Z,31.82
2018-07-20T11:12:36.662Z,31.84
2018-07-20T11:13:51.460Z,31.84
2018-07-20T11:15:05.780Z,31.82
2018-07-20T11:16:20.460Z,31.81
2018-07-20T11:17:34.958Z,31.82
2018-07-20T11:18:49.197Z,31.83
2018-07-20T11:20:03.851Z,31.88
2018-07-20T11:21:18.357Z,31.89
2018-07-20T11:22:33.365Z,31.91
2018-07-20T11:23:48.398Z,31.95
2018-07-20T11:25:02.796Z,31.96
2018-07-20T11:26:17.270Z,31.99
2018-07-20T11:27:31.483Z,32
2018-07-20T11:28:45.747Z,32.02
2018-07-20T11:30:00.219Z,32.05
2018-07-20T11:31:15.065Z,32.08
2018-07-20T11:32:29.716Z,32.1
2018-07-20T11:33:44.446Z,32.15
2018-07-20T11:34:58.665Z,32.19
2018-07-20T11:36:13.494Z,32.21
2018-07-20T11:37:28.255Z,32.17
2018-07-20T11:38:42.333Z,32.15
2018-07-20T11:39:56.074Z,32.13
2018-07-20T11:41:10.886Z,32.13
2018-07-20T11:42:25.830Z,32.13
2018-07-20T11:43:40.037Z,32.16
2018-07-20T11:44:54.258Z,32.17
2018-07-20T11:46:08.628Z,32.21
2018-07-20T11:47:23.344Z,32.24
2018-07-20T11:48:38.305Z,32.3
2018-07-20T11:49:53.017Z,32.32
2018-07-20T11:51:07.959Z,32.31
2018-07-20T11:52:21.929Z,32.25
2018-07-20T11:53:36.117Z,32.18
2018-07-20T11:54:50.843Z,32.06
2018-07-20T11:56:05.285Z,31.97
2018-07-20T11:57:19.237Z,31.9
2018-07-20T11:58:33.950Z,31.85
2018-07-20T11:59:48.386Z,31.78
2018-07-20T12:01:03.447Z,31.74
2018-07-20T12:02:18.917Z,31.72
2018-07-20T12:03:33.567Z,31.73
2018-07-20T12:04:47.823Z,31.75
2018-07-20T12:06:02.293Z,31.77
2018-07-20T12:07:16.867Z,31.79
2018-07-20T12:08:31.378Z,31.81
2018-07-20T12:09:45.576Z,31.81
2018-07-20T12:10:59.822Z,31.8
2018-07-20T12:12:14.507Z,31.78
2018-07-20T12:13:29.414Z,31.72
2018-07-20T12:14:43.664Z,31.72
2018-07-20T12:15:58.468Z,31.72
2018-07-20T12:17:13.236Z,31.73
2018-07-20T12:18:27.842Z,31.72
2018-07-20T12:19:42.001Z,31.7
2018-07-20T12:20:56.771Z,31.69
2018-07-20T12:22:11.635Z,31.68
2018-07-20T12:23:26.376Z,31.69
2018-07-20T12:24:41.107Z,31.7
2018-07-20T12:25:55.591Z,31.71
2018-07-20T12:27:10.540Z,31.72
2018-07-20T12:28:25.568Z,31.74
2018-07-20T12:29:40.587Z,31.75
2018-07-20T12:30:55.075Z,31.79
2018-07-20T12:32:10.072Z,31.8
2018-07-20T12:33:24.037Z,31.81
2018-07-20T12:34:38.994Z,31.85
2018-07-20T12:35:53.489Z,31.88
2018-07-20T12:37:08.326Z,31.92
2018-07-20T12:38:22.763Z,31.95
2018-07-20T12:39:37.758Z,32
2018-07-20T12:40:52.249Z,32.04
2018-07-20T12:42:07.013Z,32.06
2018-07-20T12:43:21.530Z,32.11
2018-07-20T12:44:35.522Z,32.12
2018-07-20T12:45:50.206Z,32.16
2018-07-20T12:47:04.658Z,32.21
2018-07-20T12:48:19.219Z,32.26
2018-07-20T12:49:33.945Z,32.3
2018-07-20T12:50:47.928Z,32.25
2018-07-20T12:52:02.682Z,32.2
2018-07-20T12:53:17.063Z,32.15
2018-07-20T12:54:31.869Z,32.07
2018-07-20T12:55:46.597Z,32
2018-07-20T12:57:01.043Z,31.94
2018-07-20T12:58:15.637Z,31.86
2018-07-20T12:59:30.286Z,31.82
2018-07-20T13:00:44.490Z,31.81
2018-07-20T13:01:59.199Z,31.81
2018-07-20T13:03:14.253Z,31.84
2018-07-20T13:04:28.753Z,31.82
2018-07-20T13:05:43.482Z,31.8
2018-07-20T13:06:57.440Z,31.81
2018-07-20T13:08:12.140Z,31.81
2018-07-20T13:09:26.724Z,31.82
2018-07-20T13:10:41.232Z,31.85
2018-07-20T13:11:56.141Z,31.85
2018-07-20T13:13:12.113Z,31.86
2018-07-20T13:14:26.891Z,31.86
2018-07-20T13:15:41.581Z,31.84
2018-07-20T13:16:56.010Z,31.85
2018-07-20T13:18:11.379Z,31.83
2018-07-20T13:19:26.033Z,31.81
2018-07-20T13:20:40.512Z,31.82
2018-07-20T13:21:55.725Z,31.82
2018-07-20T13:23:10.680Z,31.88
2018-07-20T13:24:25.595Z,31.94
2018-07-20T13:25:40.608Z,32
2018-07-20T13:26:54.626Z,32.02
2018-07-20T13:28:09.624Z,32.02
2018-07-20T13:29:24.312Z,32.01
2018-07-20T13:30:38.582Z,32
2018-07-20T13:31:53.647Z,32.01
2018-07-20T13:33:10.464Z,32.05
2018-07-20T13:34:27.469Z,32.13
2018-07-20T13:35:44.601Z,32.18
2018-07-20T13:37:00.951Z,32.19
2018-07-20T13:38:18.165Z,32.21
2018-07-20T13:39:35.575Z,32.25
2018-07-20T13:40:52.923Z,32.3
2018-07-20T13:42:09.113Z,32.35
2018-07-20T13:43:24.154Z,32.38
2018-07-20T13:44:38.637Z,32.41
2018-07-20T13:45:53.365Z,32.42
2018-07-20T13:47:07.843Z,32.41
2018-07-20T13:48:22.530Z,32.45
2018-07-20T13:49:37.255Z,32.49
2018-07-20T13:50:50.942Z,32.52
2018-07-20T13:52:05.203Z,32.55
2018-07-20T13:53:19.455Z,32.57
2018-07-20T13:54:33.801Z,32.62
2018-07-20T13:55:48.297Z,32.65
2018-07-20T13:57:03.015Z,32.64
2018-07-20T13:58:17.486Z,32.64
2018-07-20T13:59:32.591Z,32.62
2018-07-20T14:00:47.351Z,32.58
2018-07-20T14:02:01.822Z,32.54
2018-07-20T14:03:16.286Z,32.48
2018-07-20T14:04:31.027Z,32.42
2018-07-20T14:05:45.789Z,32.39
2018-07-20T14:07:00.329Z,32.41
2018-07-20T14:08:14.795Z,32.44
2018-07-20T14:09:29.696Z,32.47
2018-07-20T14:10:43.881Z,32.52
2018-07-20T14:11:58.612Z,32.55
2018-07-20T14:13:13.083Z,32.56
2018-07-20T14:14:28.270Z,32.57
2018-07-20T14:15:42.730Z,32.59
2018-07-20T14:16:57.202Z,32.6
2018-07-20T14:18:11.706Z,32.62
2018-07-20T14:19:26.656Z,32.59
2018-07-20T14:20:41.360Z,32.57
2018-07-20T14:21:55.588Z,32.56
2018-07-20T14:23:10.129Z,32.54
2018-07-20T14:24:24.958Z,32.48
2018-07-20T14:25:39.624Z,32.47
2018-07-20T14:26:53.902Z,32.47
2018-07-20T14:28:08.924Z,32.49
2018-07-20T14:29:23.422Z,32.51
2018-07-20T14:30:38.447Z,32.55
2018-07-20T14:31:53.490Z,32.55
2018-07-20T14:33:08.596Z,32.54
2018-07-20T14:34:23.288Z,32.53
2018-07-20T14:35:37.376Z,32.55
2018-07-20T14:36:51.850Z,32.55
2018-07-20T14:38:06.633Z,32.55
2018-07-20T14:39:21.397Z,32.55
2018-07-20T14:40:36.393Z,32.55
2018-07-20T14:41:50.675Z,32.57
2018-07-20T14:43:05.769Z,32.61
2018-07-20T14:44:20.429Z,32.65
2018-07-20T14:45:35.176Z,32.61
2018-07-20T14:46:49.932Z,32.62
2018-07-20T14:48:04.658Z,32.62
2018-07-20T14:49:19.348Z,32.65
2018-07-20T14:50:34.058Z,32.67
2018-07-20T14:51:48.829Z,32.68
2018-07-20T14:53:03.997Z,32.68
2018-07-20T14:54:17.975Z,32.69
2018-07-20T14:55:32.831Z,32.72
2018-07-20T14:56:47.253Z,32.73
2018-07-20T14:58:01.720Z,32.75
2018-07-20T14:59:16.683Z,32.74
2018-07-20T15:00:31.221Z,32.73
2018-07-20T15:01:48.950Z,32.72
2018-07-20T15:03:03.430Z,32.74
2018-07-20T15:04:18.015Z,32.75
2018-07-20T15:05:32.879Z,32.74
2018-07-20T15:06:47.962Z,32.74
2018-07-20T15:08:02.812Z,32.75
2018-07-20T15:09:17.617Z,32.78
2018-07-20T15:10:32.840Z,32.77
2018-07-20T15:11:47.463Z,32.76
2018-07-20T15:13:02.476Z,32.73
2018-07-20T15:14:16.979Z,32.75
2018-07-20T15:15:31.223Z,32.77
2018-07-20T15:16:46.357Z,32.77
2018-07-20T15:18:00.644Z,32.76
2018-07-20T15:19:15.942Z,32.75
2018-07-20T15:20:30.691Z,32.73
2018-07-20T15:21:45.501Z,32.71
2018-07-20T15:22:59.765Z,32.68
2018-07-20T15:24:14.057Z,32.66
2018-07-20T15:25:28.253Z,32.66
2018-07-20T15:26:42.997Z,32.64
2018-07-20T15:27:57.485Z,32.61
2018-07-20T15:29:11.728Z,32.55
2018-07-20T15:30:25.995Z,32.48
2018-07-20T15:31:41.314Z,32.42
2018-07-20T15:32:56.135Z,32.37
2018-07-20T15:34:10.661Z,32.32
2018-07-20T15:35:25.163Z,32.27
2018-07-20T15:36:39.703Z,32.21
2018-07-20T15:37:54.261Z,32.16
2018-07-20T15:39:08.851Z,32.1
2018-07-20T15:40:23.182Z,32.07
2018-07-20T15:41:37.679Z,32.07
2018-07-20T15:42:52.289Z,32.06
2018-07-20T15:44:06.206Z,32.05
2018-07-20T15:45:21.009Z,32.03
2018-07-20T15:46:35.578Z,32.01
2018-07-20T15:47:52.484Z,31.99
2018-07-20T15:49:07.210Z,31.97
2018-07-20T15:50:21.166Z,31.96
2018-07-20T15:53:35.053Z,31.96
2018-07-20T15:54:52.699Z,32.02
2018-07-20T15:56:07.493Z,32.07
2018-07-20T15:57:22.037Z,32.13
2018-07-20T15:58:36.590Z,32.21
2018-07-20T15:59:51.863Z,32.28
2018-07-20T16:01:06.671Z,32.33
2018-07-20T16:02:21.773Z,32.4
2018-07-20T16:03:36.769Z,32.48
2018-07-20T16:04:50.813Z,32.55
2018-07-20T16:06:05.143Z,32.64